Terminal Aerodrome Forecast
Issued by NWS Pocatello, ID

Home | Current Version | Previous Version | Text Only | Print | Product List | Glossary On
Versions: 1 2 3 4 5 6 7 8 9 10 11 12 13 14 15 16 17 18 19 20 21 22 23 24 25
996
FTUS45 KPIH 101720
TAFBYI
TAF
KBYI 101720Z 1018/1118 07006KT P6SM FEW003
     FM110400 06004KT 5SM BR FEW005
     FM111500 06005KT P6SM SCT070=

USA.gov is the U.S. government's official web portal to all federal, state and local government web resources and services.